| time (UTC) | temp F | wind direction | speed MPH | gust MPH | rain 1hr in | rain 24hr in | rain mn in | humidity % | barometer mb |
| 20260504214541 | 72 | 333 | 5.0 | 10.0 | 0.00 | 0.00 | 0.00 | 48 | 1011.3 |
| 20260504214055 | 72 | 307 | 5.0 | 8.0 | 0.00 | 0.00 | 0.00 | 50 | 1011.4 |
| 20260504213509 | 72 | 355 | 2.0 | 8.0 | 0.00 | 0.00 | 0.00 | 49 | 1011.5 |
| 20260504213026 | 72 | 321 | 5.0 | 8.0 | 0.00 | 0.00 | 0.00 | 49 | 1011.4 |
| 20260504212540 | 72 | 106 | 1.0 | 6.0 | 0.00 | 0.00 | 0.00 | 49 | 1011.4 |
| 20260504212050 | 72 | 339 | 3.0 | 9.0 | 0.00 | 0.00 | 0.00 | 48 | 1011.4 |
| 20260504211520 | 72 | 273 | 3.0 | 9.0 | 0.00 | 0.00 | 0.00 | 51 | 1011.5 |
| 20260504211017 | 73 | 340 | 4.0 | 9.0 | 0.00 | 0.00 | 0.00 | 48 | 1011.5 |
| 20260504210533 | 73 | 304 | 2.0 | 6.0 | 0.00 | 0.00 | 0.00 | 49 | 1011.6 |
| 20260504210046 | 72 | 255 | 1.0 | 11.0 | 0.00 | 0.00 | 0.00 | 50 | 1011.7 |
| 20260504205558 | 73 | 336 | 6.0 | 13.0 | 0.00 | 0.00 | 0.00 | 48 | 1011.9 |
| 20260504205015 | 73 | 269 | 9.0 | 13.0 | 0.00 | 0.00 | 0.00 | 47 | 1011.9 |
| 20260504204525 | 73 | 5 | 1.0 | 5.0 | 0.00 | 0.00 | 0.00 | 50 | 1011.9 |
| 20260504204041 | 73 | 200 | 2.0 | 10.0 | 0.00 | 0.00 | 0.00 | 49 | 1011.9 |
| 20260504203549 | 73 | 342 | 1.0 | 10.0 | 0.00 | 0.00 | 0.00 | 50 | 1011.9 |
| 20260504203005 | 73 | 38 | 2.0 | 8.0 | 0.00 | 0.00 | 0.00 | 50 | 1011.9 |
| 20260504202516 | 73 | 314 | 4.0 | 10.0 | 0.00 | 0.00 | 0.00 | 49 | 1012.0 |
| 20260504202029 | 73 | 80 | 3.0 | 10.0 | 0.00 | 0.00 | 0.00 | 46 | 1012.1 |
| 20260504201540 | 73 | 288 | 1.0 | 8.0 | 0.00 | 0.00 | 0.00 | 50 | 1012.2 |
| 20260504201053 | 73 | 360 | 2.0 | 8.0 | 0.00 | 0.00 | 0.00 | 48 | 1012.3 |
| 20260504200505 | 73 | 250 | 2.0 | 8.0 | 0.00 | 0.00 | 0.00 | 50 | 1012.4 |
| 20260504200022 | 73 | 237 | 2.0 | 8.0 | 0.00 | 0.00 | 0.00 | 52 | 1012.5 |
| 20260504195531 | 72 | 213 | 1.0 | 10.0 | 0.00 | 0.00 | 0.00 | 50 | 1012.6 |
| 20260504195043 | 71 | 182 | 3.0 | 10.0 | 0.00 | 0.00 | 0.00 | 53 | 1012.7 |
| 20260504194556 | 72 | 41 | 5.0 | 12.0 | 0.00 | 0.00 | 0.00 | 52 | 1012.8 |
| 20260504194013 | 71 | 300 | 4.0 | 12.0 | 0.00 | 0.00 | 0.00 | 53 | 1012.9 |
| 20260504193524 | 72 | 5 | 4.0 | 16.0 | 0.00 | 0.00 | 0.00 | 49 | 1012.9 |
| 20260504193039 | 73 | 49 | 5.0 | 16.0 | 0.00 | 0.00 | 0.00 | 48 | 1013.0 |
| 20260504192549 | 73 | 290 | 1.0 | 8.0 | 0.00 | 0.00 | 0.00 | 47 | 1013.2 |
| 20260504192007 | 73 | 294 | 2.0 | 5.0 | 0.00 | 0.00 | 0.00 | 49 | 1013.3 |
| 20260504191517 | 73 | 9 | 0.0 | 10.0 | 0.00 | 0.00 | 0.00 | 49 | 1013.3 |
| 20260504191031 | 73 | 237 | 3.0 | 10.0 | 0.00 | 0.00 | 0.00 | 48 | 1013.5 |
| 20260504190544 | 73 | 226 | 3.0 | 8.0 | 0.00 | 0.00 | 0.00 | 50 | 1013.7 |
| 20260504190109 | 72 | 227 | 2.0 | 7.0 | 0.00 | 0.00 | 0.00 | 51 | 1013.7 |
| 20260504190002 | 72 | 249 | 3.0 | 7.0 | 0.00 | 0.00 | 0.00 | 47 | 1013.7 |
| 20260504185519 | 73 | 5 | 2.0 | 7.0 | 0.00 | 0.00 | 0.00 | 49 | 1013.7 |
| 20260504185029 | 73 | 234 | 3.0 | 8.0 | 0.00 | 0.00 | 0.00 | 48 | 1013.9 |
| 20260504184552 | 73 | 282 | 4.0 | 8.0 | 0.00 | 0.00 | 0.00 | 50 | 1014.1 |
| 20260504184055 | 72 | 249 | 4.0 | 12.0 | 0.00 | 0.00 | 0.00 | 48 | 1014.1 |
| 20260504183511 | 73 | 218 | 7.0 | 12.0 | 0.00 | 0.00 | 0.00 | 46 | 1014.2 |
| 20260504183023 | 73 | 277 | 2.0 | 8.0 | 0.00 | 0.00 | 0.00 | 48 | 1014.3 |
| 20260504182540 | 73 | 305 | 3.0 | 8.0 | 0.00 | 0.00 | 0.00 | 48 | 1014.3 |
| 20260504182049 | 72 | 271 | 2.0 | 9.0 | 0.00 | 0.00 | 0.00 | 51 | 1014.4 |
| 20260504181506 | 72 | 217 | 2.0 | 7.0 | 0.00 | 0.00 | 0.00 | 48 | 1014.5 |
| 20260504181015 | 72 | 221 | 3.0 | 9.0 | 0.00 | 0.00 | 0.00 | 50 | 1014.5 |
| 20260504180530 | 71 | 207 | 4.0 | 11.0 | 0.00 | 0.00 | 0.00 | 50 | 1014.5 |
| 20260504180039 | 71 | 263 | 8.0 | 11.0 | 0.00 | 0.00 | 0.00 | 50 | 1014.6 |
| 20260504175554 | 71 | 225 | 1.0 | 9.0 | 0.00 | 0.00 | 0.00 | 48 | 1014.7 |
| 20260504175007 | 70 | 267 | 0.0 | 8.0 | 0.00 | 0.00 | 0.00 | 53 | 1014.7 |
| 20260504174519 | 69 | 315 | 1.0 | 9.0 | 0.00 | 0.00 | 0.00 | 48 | 1014.7 |
| 20260504174033 | 69 | 271 | 2.0 | 9.0 | 0.00 | 0.00 | 0.00 | 53 | 1014.8 |
| 20260504173548 | 68 | 51 | 3.0 | 6.0 | 0.00 | 0.00 | 0.00 | 47 | 1014.7 |
| 20260504173058 | 68 | 56 | 4.0 | 8.0 | 0.00 | 0.00 | 0.00 | 51 | 1014.8 |
| 20260504172513 | 67 | 19 | 2.0 | 13.0 | 0.00 | 0.00 | 0.00 | 48 | 1014.9 |
| 20260504172025 | 68 | 25 | 5.0 | 13.0 | 0.00 | 0.00 | 0.00 | 48 | 1015.0 |
| 20260504171541 | 68 | 355 | 1.0 | 8.0 | 0.00 | 0.00 | 0.00 | 48 | 1015.0 |
| 20260504171049 | 69 | 200 | 1.0 | 7.0 | 0.00 | 0.00 | 0.00 | 49 | 1015.1 |
| 20260504170505 | 69 | 232 | 2.0 | 7.0 | 0.00 | 0.00 | 0.00 | 48 | 1015.2 |
| 20260504151059 | 64 | 232 | 1.0 | 10.0 | 0.00 | 0.00 | 0.00 | 59 | 1017.3 |
| 20260504150513 | 63 | 336 | 6.0 | 10.0 | 0.00 | 0.00 | 0.00 | 53 | 1017.3 |
| 20260504141029 | 60 | 355 | 2.0 | 9.0 | 0.00 | 0.00 | 0.00 | 58 | 1018.1 |
| 20260504140543 | 59 | 33 | 4.0 | 9.0 | 0.00 | 0.00 | 0.00 | 60 | 1017.9 |
| 20260504130513 | 51 | 47 | 1.0 | 4.0 | 0.00 | 0.00 | 0.00 | 77 | 1017.4 |
| 20260504110529 | 36 | 209 | 0.0 | 0.0 | 0.00 | 0.00 | 0.00 | 92 | 1016.5 |
| 20260504100600 | 36 | 209 | 1.0 | 3.0 | 0.00 | 0.00 | 0.00 | 91 | 1016.8 |
| 20260504100504 | 36 | 209 | 0.0 | 3.0 | 0.00 | 0.00 | 0.00 | 90 | 1016.9 |
| 20260504081506 | 37 | 269 | 0.0 | 0.0 | 0.00 | 0.00 | 0.00 | 87 | 1017.4 |
| 20260504081024 | 38 | 269 | 0.0 | 0.0 | 0.00 | 0.00 | 0.00 | 87 | 1017.4 |
| 20260504080532 | 38 | 269 | 0.0 | 0.0 | 0.00 | 0.00 | 0.00 | 88 | 1017.2 |
| 20260504050536 | 40 | 269 | 0.0 | 0.0 | 0.00 | 0.00 | 0.00 | 80 | 1017.2 |
| 20260504045504 | 41 | 269 | 0.0 | 0.0 | 0.00 | 0.00 | 0.00 | 79 | 1017.3 |
| 20260504045017 | 41 | 269 | 0.0 | 0.0 | 0.00 | 0.00 | 0.00 | 79 | 1017.3 |
| 20260504044528 | 41 | 269 | 0.0 | 0.0 | 0.00 | 0.00 | 0.00 | 79 | 1017.3 |
| 20260504044042 | 41 | 269 | 0.0 | 0.0 | 0.00 | 0.00 | 0.00 | 79 | 1017.2 |
| 20260504043552 | 41 | 269 | 0.0 | 0.0 | 0.00 | 0.00 | 0.00 | 78 | 1017.2 |
| 20260504043013 | 41 | 269 | 0.0 | 0.0 | 0.00 | 0.00 | 0.00 | 79 | 1017.0 |
| 20260504042519 | 41 | 269 | 0.0 | 0.0 | 0.00 | 0.00 | 0.00 | 78 | 1017.0 |
| 20260504042039 | 42 | 269 | 0.0 | 0.0 | 0.00 | 0.00 | 0.00 | 78 | 1017.0 |
| 20260504041547 | 42 | 269 | 0.0 | 0.0 | 0.00 | 0.00 | 0.00 | 78 | 1017.2 |
| 20260504041059 | 42 | 269 | 0.0 | 0.0 | 0.00 | 0.00 | 0.00 | 77 | 1017.2 |
| 20260504041004 | 42 | 269 | 0.0 | 0.0 | 0.00 | 0.00 | 0.00 | 77 | 1017.2 |
| 20260504040517 | 42 | 269 | 0.0 | 0.0 | 0.00 | 0.00 | 0.00 | 76 | 1017.1 |
| 20260504040034 | 42 | 269 | 0.0 | 0.0 | 0.00 | 0.00 | 0.00 | 76 | 1017.2 |
| 20260504035540 | 42 | 269 | 0.0 | 0.0 | 0.00 | 0.00 | 0.00 | 77 | 1017.1 |
| 20260504035100 | 43 | 269 | 0.0 | 0.0 | 0.00 | 0.00 | 0.00 | 75 | 1017.0 |
| 20260504034509 | 43 | 269 | 0.0 | 0.0 | 0.00 | 0.00 | 0.00 | 75 | 1017.1 |
| 20260504034027 | 43 | 269 | 0.0 | 0.0 | 0.00 | 0.00 | 0.00 | 76 | 1017.0 |
| 20260504033536 | 43 | 269 | 0.0 | 0.0 | 0.00 | 0.00 | 0.00 | 75 | 1017.0 |
| 20260504033050 | 43 | 269 | 0.0 | 0.0 | 0.00 | 0.00 | 0.00 | 74 | 1016.7 |
| 20260504032600 | 43 | 269 | 0.0 | 0.0 | 0.00 | 0.00 | 0.00 | 74 | 1016.8 |
| 20260504032504 | 43 | 269 | 0.0 | 0.0 | 0.00 | 0.00 | 0.00 | 74 | 1016.8 |
| 20260504032021 | 43 | 269 | 0.0 | 0.0 | 0.00 | 0.00 | 0.00 | 73 | 1016.9 |
| 20260504031530 | 44 | 269 | 0.0 | 0.0 | 0.00 | 0.00 | 0.00 | 72 | 1016.9 |
| 20260504031051 | 44 | 269 | 0.0 | 0.0 | 0.00 | 0.00 | 0.00 | 73 | 1016.8 |
| 20260504030557 | 44 | 269 | 0.0 | 0.0 | 0.00 | 0.00 | 0.00 | 72 | 1016.7 |
| 20260504030012 | 44 | 269 | 0.0 | 0.0 | 0.00 | 0.00 | 0.00 | 72 | 1016.8 |
| 20260504025522 | 44 | 269 | 0.0 | 0.0 | 0.00 | 0.00 | 0.00 | 72 | 1016.8 |
| 20260504025038 | 44 | 269 | 0.0 | 0.0 | 0.00 | 0.00 | 0.00 | 72 | 1016.7 |
| 20260504024551 | 45 | 269 | 0.0 | 0.0 | 0.00 | 0.00 | 0.00 | 72 | 1016.7 |
| 20260504024009 | 45 | 269 | 0.0 | 0.0 | 0.00 | 0.00 | 0.00 | 71 | 1016.7 |
| 20260504023518 | 45 | 269 | 0.0 | 0.0 | 0.00 | 0.00 | 0.00 | 71 | 1016.8 |
| 20260504023037 | 45 | 269 | 0.0 | 0.0 | 0.00 | 0.00 | 0.00 | 70 | 1016.8 |
| 20260504022544 | 45 | 269 | 0.0 | 0.0 | 0.00 | 0.00 | 0.00 | 71 | 1016.7 |
| 20260504022058 | 45 | 269 | 0.0 | 0.0 | 0.00 | 0.00 | 0.00 | 70 | 1016.7 |
| 20260504021514 | 45 | 269 | 0.0 | 0.0 | 0.00 | 0.00 | 0.00 | 70 | 1016.7 |
| 20260504021026 | 46 | 269 | 0.0 | 0.0 | 0.00 | 0.00 | 0.00 | 69 | 1016.8 |
| 20260504020540 | 46 | 269 | 0.0 | 0.0 | 0.00 | 0.00 | 0.00 | 69 | 1016.8 |
| 20260504020107 | 46 | 269 | 0.0 | 0.0 | 0.00 | 0.00 | 0.00 | 68 | 1017.0 |
| 20260504015510 | 46 | 269 | 0.0 | 0.0 | 0.00 | 0.00 | 0.00 | 68 | 1017.0 |
| 20260504015021 | 46 | 269 | 0.0 | 0.0 | 0.00 | 0.00 | 0.00 | 68 | 1016.9 |
| 20260504014541 | 47 | 269 | 0.0 | 0.0 | 0.00 | 0.00 | 0.00 | 67 | 1016.9 |
| 20260504014048 | 47 | 269 | 0.0 | 0.0 | 0.00 | 0.00 | 0.00 | 67 | 1016.7 |
| 20260504013506 | 47 | 269 | 0.0 | 0.0 | 0.00 | 0.00 | 0.00 | 67 | 1016.7 |
| 20260504013021 | 47 | 269 | 0.0 | 0.0 | 0.00 | 0.00 | 0.00 | 67 | 1016.7 |
| 20260504012536 | 47 | 269 | 0.0 | 0.0 | 0.00 | 0.00 | 0.00 | 66 | 1016.6 |
| 20260504012048 | 48 | 269 | 0.0 | 0.0 | 0.00 | 0.00 | 0.00 | 65 | 1016.5 |
| 20260504011505 | 48 | 269 | 0.0 | 0.0 | 0.00 | 0.00 | 0.00 | 64 | 1016.5 |
| 20260504011021 | 48 | 269 | 0.0 | 0.0 | 0.00 | 0.00 | 0.00 | 66 | 1016.5 |
| 20260504010535 | 49 | 269 | 0.0 | 0.0 | 0.00 | 0.00 | 0.00 | 64 | 1016.4 |
| 20260504010048 | 49 | 269 | 0.0 | 2.0 | 0.00 | 0.00 | 0.00 | 64 | 1016.3 |
| 20260504005507 | 49 | 269 | 0.0 | 3.0 | 0.00 | 0.00 | 0.00 | 65 | 1016.1 |
| 20260504005018 | 49 | 269 | 2.0 | 3.0 | 0.00 | 0.00 | 0.00 | 64 | 1016.1 |
| 20260504004536 | 49 | 269 | 2.0 | 3.0 | 0.00 | 0.00 | 0.00 | 64 | 1016.0 |
| 20260504004047 | 50 | 270 | 1.0 | 2.0 | 0.00 | 0.00 | 0.00 | 62 | 1016.0 |
| 20260504003505 | 50 | 270 | 1.0 | 3.0 | 0.00 | 0.00 | 0.00 | 62 | 1016.0 |
| 20260504003022 | 51 | 270 | 0.0 | 3.0 | 0.00 | 0.00 | 0.00 | 62 | 1016.0 |
| 20260504002534 | 51 | 270 | 1.0 | 3.0 | 0.00 | 0.00 | 0.00 | 61 | 1016.0 |
| 20260504002051 | 52 | 270 | 1.0 | 3.0 | 0.00 | 0.00 | 0.00 | 59 | 1016.0 |
| 20260504001602 | 52 | 270 | 1.0 | 3.0 | 0.00 | 0.00 | 0.00 | 59 | 1016.0 |
| 20260504001504 | 52 | 270 | 1.0 | 3.0 | 0.00 | 0.00 | 0.00 | 58 | 1015.9 |
| 20260504001020 | 53 | 270 | 1.0 | 3.0 | 0.00 | 0.00 | 0.00 | 58 | 1015.8 |
| 20260504000531 | 54 | 270 | 1.0 | 3.0 | 0.00 | 0.00 | 0.00 | 57 | 1015.8 |
| 20260504000047 | 54 | 270 | 1.0 | 3.0 | 0.00 | 0.00 | 0.00 | 57 | 1015.8 |
| 20260503235558 | 55 | 270 | 1.0 | 3.0 | 0.00 | 0.00 | 0.00 | 56 | 1015.9 |
| 20260503235502 | 55 | 270 | 1.0 | 3.0 | 0.00 | 0.00 | 0.00 | 56 | 1015.9 |
| 20260503235018 | 55 | 270 | 1.0 | 3.0 | 0.00 | 0.00 | 0.00 | 53 | 1016.0 |
| 20260503234532 | 56 | 270 | 0.0 | 0.0 | 0.00 | 0.00 | 0.00 | 53 | 1015.9 |
| 20260503234048 | 56 | 270 | 0.0 | 0.0 | 0.00 | 0.00 | 0.00 | 50 | 1015.9 |
| 20260503233554 | 57 | 271 | 0.0 | 0.0 | 0.00 | 0.00 | 0.00 | 51 | 1015.8 |
| 20260503233017 | 57 | 271 | 0.0 | 2.0 | 0.00 | 0.00 | 0.00 | 48 | 1015.8 |
| 20260503232523 | 57 | 271 | 0.0 | 3.0 | 0.00 | 0.00 | 0.00 | 45 | 1015.9 |
| 20260503232038 | 57 | 271 | 1.0 | 6.0 | 0.00 | 0.00 | 0.00 | 44 | 1015.9 |
| 20260503231548 | 58 | 323 | 0.0 | 6.0 | 0.00 | 0.00 | 0.00 | 43 | 1015.9 |
| 20260503231004 | 58 | 18 | 1.0 | 4.0 | 0.00 | 0.00 | 0.00 | 42 | 1015.9 |
| 20260503230516 | 58 | 303 | 0.0 | 6.0 | 0.00 | 0.00 | 0.00 | 42 | 1015.9 |
| 20260503230034 | 58 | 266 | 2.0 | 6.0 | 0.00 | 0.00 | 0.00 | 42 | 1016.0 |
| 20260503225543 | 58 | 302 | 1.0 | 4.0 | 0.00 | 0.00 | 0.00 | 42 | 1016.0 |
| 20260503225100 | 58 | 284 | 0.0 | 4.0 | 0.00 | 0.00 | 0.00 | 41 | 1016.0 |
| 20260503225004 | 58 | 319 | 0.0 | 4.0 | 0.00 | 0.00 | 0.00 | 42 | 1016.0 |
| 20260503224520 | 58 | 302 | 0.0 | 9.0 | 0.00 | 0.00 | 0.00 | 40 | 1016.0 |
| 20260503224032 | 59 | 246 | 4.0 | 9.0 | 0.00 | 0.00 | 0.00 | 40 | 1016.0 |
| 20260503223550 | 59 | 5 | 1.0 | 5.0 | 0.00 | 0.00 | 0.00 | 39 | 1016.1 |
| 20260503223102 | 59 | 255 | 1.0 | 6.0 | 0.00 | 0.00 | 0.00 | 40 | 1016.1 |
| 20260503223003 | 59 | 255 | 1.0 | 6.0 | 0.00 | 0.00 | 0.00 | 39 | 1016.1 |
| 20260503222517 | 59 | 290 | 0.0 | 6.0 | 0.00 | 0.00 | 0.00 | 39 | 1016.1 |
| 20260503222028 | 59 | 309 | 1.0 | 5.0 | 0.00 | 0.00 | 0.00 | 39 | 1016.2 |
| 20260503221553 | 59 | 301 | 0.0 | 6.0 | 0.00 | 0.00 | 0.00 | 37 | 1016.2 |
| 20260503221053 | 59 | 298 | 0.0 | 7.0 | 0.00 | 0.00 | 0.00 | 34 | 1016.2 |
| 20260503220512 | 60 | 223 | 3.0 | 7.0 | 0.00 | 0.00 | 0.00 | 34 | 1016.2 |
| 20260503220022 | 60 | 294 | 1.0 | 7.0 | 0.00 | 0.00 | 0.00 | 35 | 1016.3 |
| 20260503215538 | 60 | 303 | 1.0 | 8.0 | 0.00 | 0.00 | 0.00 | 32 | 1016.2 |
| 20260503215049 | 60 | 227 | 3.0 | 8.0 | 0.00 | 0.00 | 0.00 | 32 | 1016.3 |